Colts Neck, New Jersey
Current Conditions -  °F | °C
As of 8:55 AM on Monday 24 Nov 2014 (Local Time) from KBLM Reporting Station
Overcast Overcast  
Wind Chill: 64°   Ceiling: 800
Heat Index: 64°   Visibility: 10mi
Dew Point: 57°   Wind: 13mph
Humidity: 77%   Direction: 190°S
Pressure: 29.7"   Gusts: 26mph
Location:  40.29°N, 74.17°W
Report Text: KBLM 241355Z AUTO 19011G23KT 10SM OVC008 18/14 A2970 RMK AO1
Loading
Personal Weather Stations






























Interactive Weather Map New forecast layout! Learn more

10-Day Weather Forecast

Advertisements
Track Severe Weather on mobile